Time;durP1;ratioP1;P1;durP2;ratioP2;P2;SDS_P1;SDS_P2;PMS_P1;PMS_P2;Temp;Humidity;BMP_temperature;BMP_pressure;BME280_temperature;BME280_humidity;BME280_pressure;Samples;Min_cycle;Max_cycle;Signal;HPM_P1;HPM_P2
2022/12/20 00:00:16;;;;;;;3.03;2.70;;;10.50;99.90;;;;;;5114398;28;20652;-59
2022/12/20 00:02:42;;;;;;;3.50;2.55;;;10.50;99.90;;;;;;5114183;28;20169;-58
2022/12/20 00:05:07;;;;;;;3.38;2.80;;;10.40;99.90;;;;;;5113077;28;20177;-58
2022/12/20 00:07:33;;;;;;;3.67;2.80;;;10.50;99.90;;;;;;5113991;28;20294;-58
2022/12/20 00:09:59;;;;;;;3.47;2.90;;;10.50;99.90;;;;;;5113896;28;20256;-58
2022/12/20 00:12:28;;;;;;;4.07;3.28;;;10.40;99.90;;;;;;5095505;28;20294;-58
2022/12/20 00:14:54;;;;;;;3.45;2.47;;;10.40;99.90;;;;;;5113860;28;20630;-58
2022/12/20 00:17:20;;;;;;;5.65;3.50;;;10.40;99.90;;;;;;5113881;28;20188;-58
2022/12/20 00:19:46;;;;;;;4.13;3.10;;;10.30;99.90;;;;;;5113852;28;20169;-58
2022/12/20 00:22:11;;;;;;;4.65;3.30;;;10.40;99.90;;;;;;5113811;28;20177;-58
2022/12/20 00:24:37;;;;;;;4.78;3.00;;;10.40;99.90;;;;;;5114216;28;20177;-57
2022/12/20 00:27:02;;;;;;;4.35;2.90;;;10.30;99.90;;;;;;5114581;28;20527;-58
2022/12/20 00:29:28;;;;;;;4.55;2.90;;;10.30;99.90;;;;;;5113798;28;20184;-58
2022/12/20 00:31:54;;;;;;;3.35;3.15;;;10.30;99.90;;;;;;5113852;28;20531;-61
2022/12/20 00:34:19;;;;;;;5.10;3.20;;;10.30;99.90;;;;;;5113793;28;20541;-58
2022/12/20 00:36:45;;;;;;;5.05;3.10;;;10.30;99.90;;;;;;5113565;28;20172;-58
2022/12/20 00:39:11;;;;;;;4.57;3.25;;;10.30;99.90;;;;;;5113603;28;20172;-58
2022/12/20 00:41:37;;;;;;;3.75;3.40;;;10.30;99.90;;;;;;5113549;28;20638;-58
2022/12/20 00:44:03;;;;;;;4.72;3.47;;;10.40;99.90;;;;;;5113640;28;20173;-57
2022/12/20 00:46:30;;;;;;;3.58;3.28;;;10.40;99.90;;;;;;5113359;28;20265;-58
2022/12/20 00:48:56;;;;;;;3.92;3.55;;;10.40;99.90;;;;;;5114038;28;20221;-58
2022/12/20 00:51:24;;;;;;;4.18;3.40;;;10.40;99.90;;;;;;5114009;28;20255;-57
2022/12/20 00:53:49;;;;;;;4.13;3.63;;;10.30;99.90;;;;;;5114766;28;20294;-57
2022/12/20 00:56:15;;;;;;;4.35;3.35;;;10.30;99.90;;;;;;5114947;28;20203;-58
2022/12/20 00:58:42;;;;;;;6.30;3.60;;;10.30;99.90;;;;;;5117214;28;20175;-57
2022/12/20 01:01:23;;;;;;;6.15;3.83;;;10.30;99.90;;;;;;5119096;28;20188;-58
2022/12/20 01:03:50;;;;;;;3.67;3.35;;;10.30;99.90;;;;;;5118927;28;20173;-57
2022/12/20 01:06:16;;;;;;;4.15;3.40;;;10.30;99.90;;;;;;5118645;28;20300;-58
2022/12/20 01:08:42;;;;;;;5.55;3.75;;;10.20;99.90;;;;;;5118648;28;20201;-58
2022/12/20 01:11:16;;;;;;;4.65;3.60;;;10.10;99.90;;;;;;5117756;28;20177;-57
2022/12/20 01:13:44;;;;;;;4.30;3.63;;;10.20;99.90;;;;;;5117576;28;20627;-58
2022/12/20 01:16:19;;;;;;;3.67;3.22;;;10.20;99.90;;;;;;5117977;28;20177;-58
2022/12/20 01:18:46;;;;;;;4.45;3.60;;;10.30;99.90;;;;;;5117944;28;20165;-58
2022/12/20 01:21:13;;;;;;;4.63;3.15;;;10.30;99.90;;;;;;5117787;28;20265;-57
2022/12/20 01:23:39;;;;;;;4.50;3.50;;;10.30;99.90;;;;;;5117997;28;20174;-57
2022/12/20 01:26:09;;;;;;;5.25;3.10;;;10.30;99.90;;;;;;5117696;28;20204;-58
2022/12/20 01:28:36;;;;;;;5.15;3.20;;;10.40;99.90;;;;;;5117752;28;20695;-58
2022/12/20 01:31:06;;;;;;;3.85;3.17;;;10.30;99.90;;;;;;5117616;28;20172;-58
2022/12/20 01:33:32;;;;;;;4.13;2.83;;;10.30;99.90;;;;;;5117234;28;20630;-58
2022/12/20 01:36:04;;;;;;;4.25;3.13;;;10.30;99.90;;;;;;5117389;28;20188;-58
2022/12/20 01:38:31;;;;;;;3.95;3.08;;;10.40;99.90;;;;;;5117586;28;20169;-58
2022/12/20 01:40:58;;;;;;;3.20;2.80;;;10.30;99.90;;;;;;5117555;28;20177;-58
2022/12/20 01:43:25;;;;;;;3.80;2.88;;;10.30;99.90;;;;;;5117155;28;20633;-57
2022/12/20 01:45:51;;;;;;;4.03;2.80;;;10.20;99.90;;;;;;5116952;28;20181;-58
2022/12/20 01:48:25;;;;;;;3.35;2.63;;;10.30;99.90;;;;;;5117027;28;20185;-57
2022/12/20 01:50:51;;;;;;;5.82;2.90;;;10.30;99.90;;;;;;5116962;28;20172;-58
2022/12/20 01:53:19;;;;;;;3.42;3.05;;;10.30;99.90;;;;;;5116862;28;20180;-58
2022/12/20 01:55:46;;;;;;;3.78;3.03;;;10.30;99.90;;;;;;5116660;28;20173;-58
2022/12/20 01:58:14;;;;;;;3.30;2.70;;;10.30;99.90;;;;;;5116478;28;20215;-58
2022/12/20 02:00:40;;;;;;;4.75;3.33;;;10.30;99.90;;;;;;5116622;28;20169;-58
2022/12/20 02:03:08;;;;;;;4.70;3.08;;;10.30;99.90;;;;;;5116291;28;20534;-58
2022/12/20 02:05:38;;;;;;;3.35;3.05;;;10.40;99.90;;;;;;5116348;28;20161;-58
2022/12/20 02:08:05;;;;;;;4.32;3.20;;;10.40;99.90;;;;;;5116359;28;20230;-58
2022/12/20 02:10:57;;;;;;;3.10;2.80;;;10.50;99.90;;;;;;5115735;28;20165;-58
2022/12/20 02:13:34;;;;;;;3.38;2.70;;;10.40;99.90;;;;;;5116256;28;20322;-58
2022/12/20 02:16:05;;;;;;;4.30;3.00;;;10.40;99.90;;;;;;5116177;28;20198;-58
2022/12/20 02:18:38;;;;;;;3.15;2.85;;;10.50;99.90;;;;;;5116180;28;20169;-58
2022/12/20 02:21:27;;;;;;;4.78;3.30;;;10.50;99.90;;;;;;5115979;28;20537;-59
2022/12/20 02:24:08;;;;;;;4.05;3.40;;;10.50;99.90;;;;;;5116282;28;20237;-58
2022/12/20 02:27:10;;;;;;;4.03;3.10;;;10.50;99.90;;;;;;5116107;28;20207;-57
2022/12/20 02:29:55;;;;;;;3.65;2.92;;;10.40;99.90;;;;;;5115840;28;20173;-58
2022/12/20 02:32:30;;;;;;;5.13;3.10;;;10.40;99.90;;;;;;5116021;28;20240;-58
2022/12/20 02:34:56;;;;;;;4.45;3.10;;;10.40;99.90;;;;;;5115895;28;20242;-58
2022/12/20 02:37:22;;;;;;;6.00;3.47;;;10.40;99.90;;;;;;5115621;28;20215;-57
2022/12/20 02:39:48;;;;;;;3.83;3.00;;;10.50;99.90;;;;;;5114386;28;20648;-58
2022/12/20 02:42:22;;;;;;;4.22;3.03;;;10.50;99.90;;;;;;5114265;28;20280;-59
2022/12/20 02:45:15;;;;;;;3.20;2.88;;;10.60;99.90;;;;;;5115600;28;20218;-58
2022/12/20 02:47:44;;;;;;;3.30;2.85;;;10.50;99.90;;;;;;5115424;28;20674;-58
2022/12/20 02:50:11;;;;;;;5.20;2.72;;;10.40;99.90;;;;;;5114494;28;20184;-57
2022/12/20 02:52:38;;;;;;;3.08;2.72;;;10.50;99.90;;;;;;5115365;28;20218;-57
2022/12/20 02:55:04;;;;;;;4.13;2.90;;;10.50;99.90;;;;;;5115555;28;20264;-58
2022/12/20 02:57:41;;;;;;;4.45;3.13;;;10.60;99.90;;;;;;5115437;28;20662;-57
2022/12/20 03:00:13;;;;;;;3.90;3.03;;;10.70;99.90;;;;;;5115286;28;20168;-57
2022/12/20 03:05:25;;;;;;;3.75;2.80;;;10.70;99.90;;;;;;5115469;28;20531;-57
2022/12/20 03:07:52;;;;;;;3.33;2.85;;;10.80;99.90;;;;;;5113936;28;20193;-57
2022/12/20 03:10:18;;;;;;;4.88;2.92;;;10.70;99.90;;;;;;5115109;28;20184;-58
2022/12/20 03:12:44;;;;;;;2.85;2.65;;;10.70;99.90;;;;;;5115097;28;20173;-57
2022/12/20 03:15:10;;;;;;;4.78;2.95;;;10.70;99.90;;;;;;5114902;28;20184;-57
2022/12/20 03:17:36;;;;;;;4.53;3.05;;;10.80;99.90;;;;;;5115043;28;20184;-57
2022/12/20 03:20:03;;;;;;;3.92;2.92;;;10.80;99.90;;;;;;5114831;28;20268;-57
2022/12/20 03:22:28;;;;;;;2.67;2.42;;;10.80;99.90;;;;;;5114173;28;20173;-58
2022/12/20 03:24:57;;;;;;;3.05;2.65;;;10.90;99.90;;;;;;5114840;28;20181;-57
2022/12/20 03:27:22;;;;;;;4.35;2.70;;;11.00;99.90;;;;;;5114646;28;20262;-57
2022/12/20 03:29:48;;;;;;;4.15;2.55;;;11.00;99.90;;;;;;5114643;28;20173;-57
2022/12/20 03:32:14;;;;;;;2.85;2.55;;;11.10;99.90;;;;;;5114592;28;20184;-57
2022/12/20 03:34:39;;;;;;;3.72;2.78;;;11.10;99.90;;;;;;5114730;28;20264;-58
2022/12/20 03:37:05;;;;;;;3.75;2.72;;;11.10;99.90;;;;;;5114755;28;20230;-57
2022/12/20 03:39:31;;;;;;;3.28;2.95;;;11.10;99.90;;;;;;5113168;28;20213;-57
2022/12/20 03:41:56;;;;;;;4.53;2.85;;;11.10;99.90;;;;;;5114646;28;20200;-57
2022/12/20 03:44:23;;;;;;;3.58;2.90;;;11.00;99.90;;;;;;5114817;28;20172;-57
2022/12/20 03:46:49;;;;;;;5.70;2.78;;;11.00;99.90;;;;;;5114307;28;20201;-57
2022/12/20 03:49:15;;;;;;;5.30;2.60;;;11.10;99.90;;;;;;5114492;28;20180;-57
2022/12/20 03:51:40;;;;;;;3.10;2.50;;;11.10;99.90;;;;;;5114205;28;20184;-57
2022/12/20 03:54:06;;;;;;;4.97;2.80;;;11.00;99.90;;;;;;5114107;28;20181;-57
2022/12/20 03:56:32;;;;;;;2.95;2.60;;;11.10;99.90;;;;;;5112958;28;20177;-57
2022/12/20 03:58:57;;;;;;;3.42;2.70;;;11.20;99.90;;;;;;5114092;28;20519;-57
2022/12/20 04:01:26;;;;;;;3.28;2.80;;;11.10;99.90;;;;;;5113677;28;20176;-57
2022/12/20 04:03:52;;;;;;;4.75;2.60;;;11.10;99.90;;;;;;5114210;28;20169;-57
2022/12/20 04:06:18;;;;;;;3.72;2.50;;;11.10;99.90;;;;;;5114055;28;20215;-57
2022/12/20 04:08:44;;;;;;;4.38;3.00;;;11.10;99.90;;;;;;5114129;28;20532;-57
2022/12/20 04:11:16;;;;;;;5.68;2.45;;;11.10;99.90;;;;;;5114138;28;20247;-57
2022/12/20 04:13:47;;;;;;;2.72;2.53;;;11.00;99.90;;;;;;5113950;28;20179;-57
2022/12/20 04:16:18;;;;;;;6.55;3.08;;;11.10;99.90;;;;;;5114046;28;20534;-58
2022/12/20 04:18:44;;;;;;;2.83;2.53;;;11.00;99.90;;;;;;5114062;28;20177;-57
2022/12/20 04:21:11;;;;;;;3.92;2.80;;;11.00;99.90;;;;;;5113875;28;20533;-57
2022/12/20 04:23:38;;;;;;;4.88;2.67;;;11.10;99.90;;;;;;5113752;28;20210;-57
2022/12/20 04:26:05;;;;;;;3.50;2.67;;;11.10;99.90;;;;;;5113652;28;20653;-57
2022/12/20 04:28:31;;;;;;;3.45;2.60;;;11.10;99.90;;;;;;5113573;28;20177;-57
2022/12/20 04:30:58;;;;;;;3.85;2.80;;;11.10;99.90;;;;;;5113865;28;20173;-57
2022/12/20 04:33:25;;;;;;;3.38;2.53;;;11.10;99.90;;;;;;5113701;28;20579;-57
2022/12/20 04:35:51;;;;;;;3.28;2.47;;;11.20;99.90;;;;;;5113753;28;20181;-57
2022/12/20 04:38:19;;;;;;;3.80;2.67;;;11.10;99.90;;;;;;5113657;28;20185;-57
2022/12/20 04:40:48;;;;;;;3.50;2.53;;;11.10;99.90;;;;;;5113515;28;20176;-57
2022/12/20 04:43:14;;;;;;;4.55;2.78;;;11.00;99.90;;;;;;5113682;28;20189;-57
2022/12/20 04:45:40;;;;;;;4.32;2.42;;;11.00;99.90;;;;;;5113631;28;20168;-58
2022/12/20 04:48:05;;;;;;;3.78;2.60;;;11.10;99.90;;;;;;5113597;28;20177;-57
2022/12/20 04:50:35;;;;;;;3.25;2.67;;;11.10;99.90;;;;;;5113504;28;20177;-56
2022/12/20 04:55:44;;;;;;;3.45;2.42;;;11.20;99.90;;;;;;5113807;28;20542;-57
2022/12/20 04:58:10;;;;;;;3.08;2.30;;;11.20;99.90;;;;;;5113559;28;20169;-56
2022/12/20 05:00:36;;;;;;;2.35;2.00;;;11.20;99.90;;;;;;5095777;28;20181;-57
2022/12/20 05:03:02;;;;;;;2.70;2.42;;;11.10;99.90;;;;;;5113802;28;20173;-57
2022/12/20 05:05:28;;;;;;;3.83;2.10;;;11.10;99.90;;;;;;5113377;28;20538;-58
2022/12/20 05:07:54;;;;;;;4.95;2.40;;;11.00;99.90;;;;;;5113215;28;20207;-57
2022/12/20 05:10:20;;;;;;;6.28;2.30;;;11.00;99.90;;;;;;5113255;28;20174;-57
2022/12/20 05:12:45;;;;;;;3.13;2.33;;;11.00;99.90;;;;;;5113632;28;20208;-57
2022/12/20 05:15:11;;;;;;;3.13;2.00;;;11.00;99.90;;;;;;5113379;28;20194;-57
2022/12/20 05:17:37;;;;;;;2.83;2.20;;;10.90;99.90;;;;;;5113257;28;20680;-57
2022/12/20 05:20:04;;;;;;;2.90;2.35;;;10.90;99.90;;;;;;5113310;28;20208;-57
2022/12/20 05:27:59;;;;;;;4.90;2.42;;;10.80;99.90;;;;;;5113126;28;20234;-57
2022/12/20 05:30:25;;;;;;;3.78;2.42;;;10.70;99.90;;;;;;5113140;28;20169;-56
2022/12/20 05:32:53;;;;;;;3.63;2.13;;;10.70;99.90;;;;;;5113042;28;20169;-57
2022/12/20 05:35:19;;;;;;;3.33;2.30;;;10.70;99.90;;;;;;5113255;28;20191;-57
2022/12/20 05:37:45;;;;;;;3.50;1.90;;;10.60;99.90;;;;;;5113298;28;20739;-57
2022/12/20 05:40:10;;;;;;;3.78;2.00;;;10.70;99.90;;;;;;5113114;28;20177;-57
2022/12/20 05:42:36;;;;;;;3.92;2.20;;;10.70;99.90;;;;;;5113045;28;20197;-57
2022/12/20 05:45:04;;;;;;;4.18;2.10;;;10.80;99.90;;;;;;5115421;28;20179;-56
2022/12/20 05:47:32;;;;;;;2.30;2.00;;;10.70;99.90;;;;;;5098581;28;20196;-56
2022/12/20 05:49:59;;;;;;;5.63;2.20;;;10.70;99.90;;;;;;5116866;28;20511;-57
2022/12/20 05:52:24;;;;;;;2.78;2.22;;;10.80;99.90;;;;;;5116708;27;20173;-58
2022/12/20 05:54:50;;;;;;;3.22;2.05;;;10.70;99.90;;;;;;5116703;28;20196;-57
2022/12/20 05:57:16;;;;;;;3.65;2.00;;;10.70;99.90;;;;;;5116672;28;20198;-59
2022/12/20 05:59:42;;;;;;;4.05;1.95;;;10.70;99.90;;;;;;5116492;28;20628;-58
2022/12/20 06:02:09;;;;;;;3.17;2.30;;;10.80;99.90;;;;;;5116365;28;20173;-58
2022/12/20 06:04:37;;;;;;;2.35;2.05;;;10.70;99.90;;;;;;5115564;28;20208;-58
2022/12/20 06:07:04;;;;;;;3.28;1.60;;;10.80;99.90;;;;;;5116327;28;20208;-58
2022/12/20 06:09:30;;;;;;;2.28;2.08;;;10.80;99.90;;;;;;5116236;28;20630;-59
2022/12/20 06:11:55;;;;;;;3.03;1.70;;;10.80;99.90;;;;;;5116593;28;20174;-58
2022/12/20 06:14:21;;;;;;;2.88;2.28;;;10.80;99.90;;;;;;5116130;28;20227;-58
2022/12/20 06:16:47;;;;;;;3.22;2.03;;;10.80;99.90;;;;;;5116029;28;20218;-58
2022/12/20 06:19:13;;;;;;;3.63;1.95;;;10.70;99.90;;;;;;5116234;28;20687;-58
2022/12/20 06:21:38;;;;;;;2.13;1.80;;;10.80;99.90;;;;;;5116154;28;20579;-58
2022/12/20 06:24:05;;;;;;;2.10;1.77;;;10.80;99.90;;;;;;5116163;28;20173;-57
2022/12/20 06:26:35;;;;;;;3.22;1.80;;;10.80;99.90;;;;;;5115954;28;20192;-58
2022/12/20 06:29:01;;;;;;;4.82;2.42;;;10.80;99.90;;;;;;5115844;28;20182;-57
2022/12/20 06:31:27;;;;;;;2.55;1.90;;;10.90;99.90;;;;;;5115659;28;20174;-59
2022/12/20 06:33:52;;;;;;;3.50;1.77;;;10.90;99.90;;;;;;5115962;28;20226;-58
2022/12/20 06:36:18;;;;;;;3.72;1.70;;;11.00;99.90;;;;;;5115802;28;20280;-58
2022/12/20 06:38:44;;;;;;;4.13;1.90;;;11.00;99.90;;;;;;5115822;28;20674;-58
2022/12/20 06:41:09;;;;;;;1.90;1.58;;;11.20;99.90;;;;;;5113926;28;20181;-57
2022/12/20 06:43:35;;;;;;;4.10;1.75;;;11.00;99.90;;;;;;5115001;28;20261;-58
2022/12/20 06:46:00;;;;;;;6.75;2.22;;;11.00;99.90;;;;;;5114784;28;20318;-58
2022/12/20 06:48:26;;;;;;;3.90;1.77;;;11.20;99.90;;;;;;5115030;28;20177;-58
2022/12/20 06:50:52;;;;;;;2.80;1.80;;;11.10;99.90;;;;;;5115108;28;20180;-59
2022/12/20 06:53:18;;;;;;;2.28;1.90;;;11.10;99.90;;;;;;5114920;28;20189;-58
2022/12/20 06:55:48;;;;;;;2.92;1.88;;;11.10;99.90;;;;;;5112538;28;20230;-58
2022/12/20 06:58:15;;;;;;;3.35;2.00;;;11.20;99.90;;;;;;5114784;28;20299;-58
2022/12/20 07:00:40;;;;;;;3.58;1.90;;;11.10;99.90;;;;;;5114546;27;20222;-59
2022/12/20 07:03:06;;;;;;;4.60;2.20;;;11.10;99.90;;;;;;5114817;28;20173;-58
2022/12/20 07:05:31;;;;;;;4.35;2.15;;;11.00;99.90;;;;;;5114916;28;20203;-57
2022/12/20 07:07:57;;;;;;;6.00;2.30;;;11.00;99.90;;;;;;5114530;28;20674;-57
2022/12/20 07:10:23;;;;;;;4.47;2.25;;;11.00;99.90;;;;;;5114542;28;20180;-57
2022/12/20 07:12:49;;;;;;;4.03;2.15;;;11.10;99.90;;;;;;5114301;28;20209;-56
2022/12/20 07:15:15;;;;;;;4.03;2.10;;;11.00;99.90;;;;;;5114394;28;20284;-56
2022/12/20 07:17:40;;;;;;;2.22;1.77;;;11.00;99.90;;;;;;5114552;28;20230;-57
2022/12/20 07:20:06;;;;;;;3.22;2.28;;;10.90;99.90;;;;;;5114426;28;20178;-59
2022/12/20 07:22:35;;;;;;;5.18;2.40;;;10.90;99.90;;;;;;5114321;28;20177;-57
2022/12/20 07:25:01;;;;;;;4.72;2.38;;;10.80;99.90;;;;;;5114254;28;20550;-59
2022/12/20 07:27:26;;;;;;;5.32;2.40;;;10.80;99.90;;;;;;5114078;28;20204;-59
2022/12/20 07:29:55;;;;;;;4.18;2.65;;;10.80;99.90;;;;;;5114089;28;20216;-57
2022/12/20 07:32:21;;;;;;;4.20;2.70;;;10.80;99.90;;;;;;5114250;28;20201;-57
2022/12/20 07:34:46;;;;;;;4.50;2.70;;;10.80;99.90;;;;;;5112955;28;20188;-59
2022/12/20 07:37:12;;;;;;;3.72;2.88;;;10.80;99.90;;;;;;5113956;28;20189;-56
2022/12/20 07:39:38;;;;;;;6.07;3.10;;;10.80;99.90;;;;;;5114013;28;20184;-59
2022/12/20 07:42:04;;;;;;;3.40;2.42;;;10.80;99.90;;;;;;5113969;28;20220;-59
2022/12/20 07:44:29;;;;;;;4.43;2.95;;;10.70;99.90;;;;;;5113986;28;20179;-59
2022/12/20 07:46:55;;;;;;;5.50;2.80;;;10.70;99.90;;;;;;5112520;28;20655;-58
2022/12/20 07:49:21;;;;;;;4.97;2.75;;;10.60;99.90;;;;;;5113838;28;20735;-59
2022/12/20 07:51:53;;;;;;;4.22;2.60;;;10.60;99.90;;;;;;5113814;28;20165;-59
2022/12/20 07:54:26;;;;;;;5.35;3.05;;;10.60;99.90;;;;;;5113700;28;20214;-57
2022/12/20 07:56:57;;;;;;;6.32;3.00;;;10.70;99.90;;;;;;5113687;28;20192;-59
2022/12/20 07:59:44;;;;;;;4.72;2.83;;;10.70;99.90;;;;;;5113679;28;20165;-58
2022/12/20 08:02:16;;;;;;;4.55;2.75;;;10.60;99.90;;;;;;5113602;28;20252;-56
2022/12/20 08:04:41;;;;;;;5.28;2.95;;;10.70;99.90;;;;;;5113608;28;20195;-59
2022/12/20 08:07:09;;;;;;;6.35;2.92;;;10.80;99.90;;;;;;5112932;28;20766;-58
2022/12/20 08:09:39;;;;;;;4.95;2.97;;;10.70;99.90;;;;;;5112460;28;20560;-56
2022/12/20 08:12:07;;;;;;;4.72;3.13;;;10.60;99.90;;;;;;5113635;28;20237;-58
2022/12/20 08:14:33;;;;;;;4.25;3.22;;;10.60;99.90;;;;;;5113471;28;20546;-58
2022/12/20 08:16:59;;;;;;;6.38;3.38;;;10.70;99.90;;;;;;5113340;28;20176;-56
2022/12/20 08:19:25;;;;;;;5.50;3.25;;;10.70;99.90;;;;;;5113266;28;20634;-58
2022/12/20 08:21:50;;;;;;;5.63;3.30;;;10.80;99.90;;;;;;5113143;28;20180;-58
2022/12/20 08:24:16;;;;;;;7.88;3.33;;;10.70;99.90;;;;;;5113978;28;20226;-59
2022/12/20 08:26:45;;;;;;;7.10;3.30;;;10.70;99.90;;;;;;5112724;28;20559;-58
2022/12/20 08:29:11;;;;;;;7.07;2.97;;;10.60;99.90;;;;;;5113359;28;20386;-58
2022/12/20 08:31:38;;;;;;;7.00;3.42;;;10.60;99.90;;;;;;5113040;27;20230;-58
2022/12/20 08:34:04;;;;;;;4.70;3.05;;;10.70;99.90;;;;;;5113230;28;20638;-56
2022/12/20 08:36:30;;;;;;;4.60;3.10;;;10.70;99.90;;;;;;5113084;28;20301;-56
2022/12/20 08:38:55;;;;;;;5.03;3.70;;;10.70;99.90;;;;;;5113263;28;20687;-56
2022/12/20 08:41:21;;;;;;;5.35;3.80;;;10.60;99.90;;;;;;5111936;28;20177;-56
2022/12/20 08:43:47;;;;;;;7.25;3.08;;;10.70;99.90;;;;;;5112879;28;20646;-56
2022/12/20 08:46:13;;;;;;;4.32;3.22;;;10.70;99.90;;;;;;5113034;28;20205;-55
2022/12/20 08:48:39;;;;;;;4.70;3.17;;;10.80;99.90;;;;;;5113258;28;20174;-55
2022/12/20 08:51:07;;;;;;;6.25;3.30;;;10.70;99.90;;;;;;5112941;28;20183;-56
2022/12/20 08:53:34;;;;;;;7.32;3.30;;;10.70;99.90;;;;;;5113147;28;20173;-56
2022/12/20 08:56:12;;;;;;;6.63;3.20;;;10.70;99.90;;;;;;5112979;28;20180;-55
2022/12/20 08:58:45;;;;;;;7.40;3.42;;;10.70;99.90;;;;;;5112951;28;20181;-55
2022/12/20 09:01:19;;;;;;;3.50;3.20;;;10.70;99.90;;;;;;5112854;28;20172;-55
2022/12/20 09:03:45;;;;;;;4.65;2.85;;;10.70;99.90;;;;;;5113111;28;20268;-56
2022/12/20 09:06:14;;;;;;;3.72;3.17;;;10.70;99.90;;;;;;5112846;28;20212;-56
2022/12/20 09:08:40;;;;;;;5.15;3.25;;;10.70;99.90;;;;;;5112881;28;20177;-56
2022/12/20 09:11:12;;;;;;;4.95;2.90;;;10.70;99.90;;;;;;5112963;28;20174;-56
2022/12/20 09:13:38;;;;;;;4.07;3.25;;;10.80;99.90;;;;;;5112845;28;20374;-56
2022/12/20 09:16:05;;;;;;;5.78;3.47;;;10.70;99.90;;;;;;5112622;28;20170;-56
2022/12/20 09:18:32;;;;;;;5.68;3.42;;;10.80;99.90;;;;;;5113037;28;20166;-56
2022/12/20 09:21:02;;;;;;;7.75;3.45;;;10.70;99.90;;;;;;5116831;28;20757;-56
2022/12/20 09:23:29;;;;;;;4.80;3.42;;;10.80;99.90;;;;;;5115226;28;20260;-56
2022/12/20 09:25:59;;;;;;;3.90;3.35;;;10.80;99.90;;;;;;5116604;28;20231;-56
2022/12/20 09:28:25;;;;;;;5.63;3.80;;;10.80;99.90;;;;;;5116575;28;20260;-55
2022/12/20 09:30:51;;;;;;;4.55;3.10;;;10.80;99.90;;;;;;5115478;28;20201;-57
2022/12/20 09:33:16;;;;;;;5.93;3.53;;;10.90;99.90;;;;;;5116545;28;20169;-56
2022/12/20 09:35:46;;;;;;;4.85;3.58;;;10.90;99.90;;;;;;5116408;28;20177;-55
2022/12/20 09:38:12;;;;;;;5.80;3.50;;;10.80;99.90;;;;;;5116317;28;20637;-56
2022/12/20 09:40:45;;;;;;;5.63;3.70;;;10.90;99.90;;;;;;5116189;28;20205;-56
2022/12/20 09:43:13;;;;;;;5.75;3.78;;;10.80;99.90;;;;;;5116306;28;20242;-56
2022/12/20 09:45:38;;;;;;;6.32;3.63;;;10.80;99.90;;;;;;5116318;28;20173;-55
2022/12/20 09:48:08;;;;;;;5.93;3.58;;;10.90;99.90;;;;;;5116148;28;20212;-57
2022/12/20 09:50:47;;;;;;;6.35;4.00;;;11.00;99.90;;;;;;5116225;28;20173;-56
2022/12/20 09:53:25;;;;;;;6.28;3.80;;;11.00;99.90;;;;;;5116051;28;20164;-55
2022/12/20 09:55:59;;;;;;;7.68;3.35;;;11.00;99.90;;;;;;5116163;28;20579;-54
2022/12/20 09:58:45;;;;;;;5.68;3.80;;;11.00;99.90;;;;;;5116325;28;20196;-55
2022/12/20 10:01:23;;;;;;;7.20;3.88;;;11.00;99.90;;;;;;5116062;28;20622;-55
2022/12/20 10:03:50;;;;;;;8.40;4.00;;;11.00;99.90;;;;;;5116019;28;20215;-54
2022/12/20 10:06:21;;;;;;;5.15;3.88;;;11.00;99.90;;;;;;5115874;28;20262;-54
2022/12/20 10:09:00;;;;;;;4.10;3.67;;;11.00;99.90;;;;;;5115856;28;20171;-54
2022/12/20 10:11:29;;;;;;;5.40;3.92;;;11.00;99.90;;;;;;5115982;28;20188;-54
2022/12/20 10:14:06;;;;;;;4.50;3.55;;;11.00;99.90;;;;;;5115657;28;20253;-52
2022/12/20 10:16:39;;;;;;;8.75;4.15;;;10.90;99.90;;;;;;5115532;28;20172;-52
2022/12/20 10:19:29;;;;;;;4.82;3.72;;;10.90;99.90;;;;;;5115804;28;20634;-53
2022/12/20 10:22:12;;;;;;;6.72;4.03;;;10.90;99.90;;;;;;5115687;28;20215;-53
2022/12/20 10:24:39;;;;;;;6.40;4.43;;;11.00;99.90;;;;;;5115437;28;20260;-53
2022/12/20 10:27:20;;;;;;;6.35;3.78;;;11.00;99.90;;;;;;5115334;28;20196;-51
2022/12/20 10:29:48;;;;;;;6.35;3.80;;;11.00;99.90;;;;;;5115409;28;20252;-52
2022/12/20 10:32:21;;;;;;;6.38;4.22;;;11.00;99.90;;;;;;5115380;28;20180;-51
2022/12/20 10:35:13;;;;;;;5.35;4.18;;;11.00;99.90;;;;;;5115267;28;20170;-53
2022/12/20 10:37:56;;;;;;;6.88;4.40;;;11.00;99.90;;;;;;5115469;28;20238;-55
2022/12/20 10:40:32;;;;;;;6.20;3.75;;;11.00;99.90;;;;;;5115290;28;20203;-54
2022/12/20 10:42:58;;;;;;;5.57;4.05;;;11.10;99.90;;;;;;5115466;28;20189;-54
2022/12/20 10:45:32;;;;;;;8.52;4.35;;;11.10;99.90;;;;;;5115059;28;20176;-53
2022/12/20 10:48:01;;;;;;;7.15;4.35;;;11.10;99.90;;;;;;5115094;28;20201;-52
2022/12/20 10:50:27;;;;;;;6.65;4.45;;;11.10;99.90;;;;;;5115676;28;20173;-52
2022/12/20 10:53:08;;;;;;;4.88;4.10;;;11.10;99.90;;;;;;5115578;28;20177;-52
2022/12/20 10:55:39;;;;;;;6.85;4.28;;;11.10;99.90;;;;;;5115408;28;20708;-54
2022/12/20 10:58:17;;;;;;;9.95;4.70;;;11.10;99.90;;;;;;5115318;28;20177;-53
2022/12/20 11:00:44;;;;;;;7.90;4.75;;;11.00;99.90;;;;;;5115406;28;20169;-53
2022/12/20 11:03:19;;;;;;;8.15;5.03;;;11.00;99.90;;;;;;5115385;28;20252;-53
2022/12/20 11:06:03;;;;;;;8.70;5.30;;;11.00;99.90;;;;;;5115223;28;20161;-54
2022/12/20 11:08:31;;;;;;;7.82;4.80;;;11.10;99.90;;;;;;5115195;28;20217;-54
2022/12/20 11:11:17;;;;;;;7.85;4.72;;;11.10;99.90;;;;;;5115317;28;20184;-55
2022/12/20 11:13:44;;;;;;;7.10;5.20;;;11.10;99.90;;;;;;5115208;28;20225;-54
2022/12/20 11:16:36;;;;;;;7.47;4.65;;;11.10;99.90;;;;;;5115068;28;20527;-55
2022/12/20 11:19:29;;;;;;;7.63;4.80;;;11.10;99.90;;;;;;5115198;28;20161;-55
2022/12/20 11:22:39;;;;;;;5.32;4.32;;;11.10;99.90;;;;;;5114988;28;20170;-53
2022/12/20 11:25:13;;;;;;;6.85;4.80;;;11.20;99.90;;;;;;5085801;28;20602;-54
2022/12/20 11:28:16;;;;;;;6.13;4.97;;;11.20;99.90;;;;;;5114866;28;20222;-57
2022/12/20 11:31:08;;;;;;;6.32;5.00;;;11.20;99.90;;;;;;5082418;28;20192;-55
2022/12/20 11:33:55;;;;;;;4.72;4.20;;;11.20;99.90;;;;;;5114567;28;20227;-54
2022/12/20 11:36:52;;;;;;;6.38;4.53;;;11.30;99.90;;;;;;5114791;28;20660;-55
2022/12/20 11:39:45;;;;;;;9.30;4.97;;;11.20;99.90;;;;;;5111376;28;20200;-54
2022/12/20 11:42:21;;;;;;;8.25;5.32;;;11.20;99.90;;;;;;5114098;28;20193;-53
2022/12/20 11:45:34;;;;;;;7.10;4.47;;;11.10;99.90;;;;;;5114655;28;20218;-54
2022/12/20 11:48:38;;;;;;;4.88;4.38;;;11.10;99.90;;;;;;5108452;28;20662;-53
2022/12/20 11:51:21;;;;;;;9.23;5.18;;;11.20;99.90;;;;;;5079939;28;20221;-56
2022/12/20 11:54:16;;;;;;;9.25;5.55;;;11.20;99.90;;;;;;5114409;28;20244;-54
2022/12/20 11:56:46;;;;;;;11.45;5.63;;;11.20;99.90;;;;;;5108787;28;20200;-55
2022/12/20 11:59:42;;;;;;;9.15;5.40;;;11.30;99.90;;;;;;5114478;28;20165;-54
2022/12/20 12:02:30;;;;;;;7.40;5.28;;;11.30;99.90;;;;;;5114093;28;20176;-54
2022/12/20 12:05:03;;;;;;;7.35;5.43;;;11.30;99.90;;;;;;5114364;28;20166;-54
2022/12/20 12:07:32;;;;;;;7.88;5.22;;;11.20;99.90;;;;;;5114237;28;20211;-54
2022/12/20 12:10:01;;;;;;;8.30;5.82;;;11.20;99.90;;;;;;5114090;28;20180;-54
2022/12/20 12:12:39;;;;;;;7.03;5.05;;;11.10;99.90;;;;;;5114079;28;20199;-54
2022/12/20 12:15:27;;;;;;;6.40;4.90;;;11.10;99.90;;;;;;5113961;28;20185;-55
2022/12/20 12:18:06;;;;;;;6.40;5.03;;;11.20;99.90;;;;;;5113991;28;20165;-54
2022/12/20 12:20:47;;;;;;;8.65;5.40;;;11.20;99.90;;;;;;5113960;28;20161;-53
2022/12/20 12:23:34;;;;;;;6.95;5.00;;;11.30;99.90;;;;;;5113845;28;20630;-54
2022/12/20 12:26:23;;;;;;;9.88;5.50;;;11.20;99.90;;;;;;5113653;28;20188;-53
2022/12/20 12:29:08;;;;;;;7.18;5.07;;;11.10;99.90;;;;;;5113284;28;20189;-54
2022/12/20 12:31:54;;;;;;;5.38;4.63;;;11.10;99.90;;;;;;5113832;28;20193;-54
2022/12/20 12:34:26;;;;;;;6.47;5.03;;;11.10;99.90;;;;;;5113501;28;20185;-54
2022/12/20 12:36:54;;;;;;;8.32;5.22;;;11.20;99.90;;;;;;5113833;28;20253;-54
2022/12/20 12:39:28;;;;;;;6.85;5.15;;;11.10;99.90;;;;;;5113686;28;20567;-52
2022/12/20 12:42:12;;;;;;;6.72;5.10;;;11.20;99.90;;;;;;5113798;28;20185;-55
2022/12/20 12:44:42;;;;;;;7.70;5.30;;;11.20;99.90;;;;;;5113790;28;20185;-52
2022/12/20 12:47:42;;;;;;;6.68;5.43;;;11.20;99.90;;;;;;5113640;28;20246;-55
2022/12/20 12:50:21;;;;;;;7.38;5.28;;;11.20;99.90;;;;;;5113742;28;20222;-54
2022/12/20 12:52:56;;;;;;;8.35;5.03;;;11.20;99.90;;;;;;5112498;28;20172;-54
2022/12/20 12:55:39;;;;;;;9.10;5.20;;;11.20;99.90;;;;;;5117129;28;20294;-53
2022/12/20 12:58:22;;;;;;;6.70;5.00;;;11.10;99.90;;;;;;5117876;28;20221;-54
2022/12/20 13:00:53;;;;;;;5.93;4.80;;;11.10;99.90;;;;;;5117504;28;20184;-54
2022/12/20 13:03:40;;;;;;;6.47;4.95;;;11.10;99.90;;;;;;5117796;28;20173;-54
2022/12/20 13:06:24;;;;;;;5.32;4.72;;;11.10;99.90;;;;;;5117679;28;20194;-53
2022/12/20 13:08:56;;;;;;;8.50;5.10;;;11.20;99.90;;;;;;5117509;28;20652;-53
2022/12/20 13:11:36;;;;;;;6.75;4.95;;;11.10;99.90;;;;;;5117210;28;20218;-53
2022/12/20 13:14:17;;;;;;;7.90;4.95;;;11.20;99.90;;;;;;5117600;28;20169;-51
2022/12/20 13:16:53;;;;;;;7.95;4.82;;;11.00;99.90;;;;;;5117416;28;20169;-53